sensor_id;sensor_type;location;lat;lon;timestamp;P1;durP1;ratioP1;P2;durP2;ratioP2
44102;SDS011;29769;42.178;24.742;2023-02-28T00:00:42;22.33;;;9.20;;
44102;SDS011;29769;42.178;24.742;2023-02-28T00:03:28;16.38;;;9.15;;
44102;SDS011;29769;42.178;24.742;2023-02-28T00:06:13;19.95;;;9.13;;
44102;SDS011;29769;42.178;24.742;2023-02-28T00:08:58;20.50;;;9.48;;
44102;SDS011;29769;42.178;24.742;2023-02-28T00:11:43;19.13;;;9.32;;
44102;SDS011;29769;42.178;24.742;2023-02-28T00:14:29;13.60;;;8.60;;
44102;SDS011;29769;42.178;24.742;2023-02-28T00:17:14;15.70;;;8.25;;
44102;SDS011;29769;42.178;24.742;2023-02-28T00:20:02;20.30;;;8.38;;
44102;SDS011;29769;42.178;24.742;2023-02-28T00:22:52;11.60;;;8.32;;
44102;SDS011;29769;42.178;24.742;2023-02-28T00:25:38;14.60;;;8.10;;
44102;SDS011;29769;42.178;24.742;2023-02-28T00:28:24;22.55;;;8.98;;
44102;SDS011;29769;42.178;24.742;2023-02-28T00:31:09;19.05;;;9.63;;
44102;SDS011;29769;42.178;24.742;2023-02-28T00:33:53;20.17;;;9.88;;
44102;SDS011;29769;42.178;24.742;2023-02-28T00:36:39;14.27;;;8.77;;
44102;SDS011;29769;42.178;24.742;2023-02-28T00:39:25;19.25;;;8.65;;
44102;SDS011;29769;42.178;24.742;2023-02-28T00:42:10;15.38;;;8.93;;
44102;SDS011;29769;42.178;24.742;2023-02-28T00:44:54;19.58;;;9.02;;
44102;SDS011;29769;42.178;24.742;2023-02-28T00:47:39;19.08;;;9.45;;
44102;SDS011;29769;42.178;24.742;2023-02-28T00:50:24;23.48;;;9.45;;
44102;SDS011;29769;42.178;24.742;2023-02-28T00:55:54;14.10;;;8.05;;
44102;SDS011;29769;42.178;24.742;2023-02-28T00:58:39;18.00;;;8.57;;
44102;SDS011;29769;42.178;24.742;2023-02-28T01:01:24;21.60;;;9.30;;
44102;SDS011;29769;42.178;24.742;2023-02-28T01:06:54;21.83;;;9.00;;
44102;SDS011;29769;42.178;24.742;2023-02-28T01:09:38;57.03;;;10.07;;
44102;SDS011;29769;42.178;24.742;2023-02-28T01:12:23;19.50;;;9.02;;
44102;SDS011;29769;42.178;24.742;2023-02-28T01:15:10;17.38;;;7.75;;
44102;SDS011;29769;42.178;24.742;2023-02-28T01:17:56;19.00;;;8.23;;
44102;SDS011;29769;42.178;24.742;2023-02-28T01:20:41;30.35;;;8.30;;
44102;SDS011;29769;42.178;24.742;2023-02-28T01:23:27;28.73;;;9.90;;
44102;SDS011;29769;42.178;24.742;2023-02-28T01:26:16;24.70;;;8.30;;
44102;SDS011;29769;42.178;24.742;2023-02-28T01:29:02;19.23;;;7.55;;
44102;SDS011;29769;42.178;24.742;2023-02-28T01:31:47;22.67;;;8.15;;
44102;SDS011;29769;42.178;24.742;2023-02-28T01:34:32;14.15;;;7.15;;
44102;SDS011;29769;42.178;24.742;2023-02-28T01:37:17;21.73;;;7.32;;
44102;SDS011;29769;42.178;24.742;2023-02-28T01:40:02;18.50;;;7.75;;
44102;SDS011;29769;42.178;24.742;2023-02-28T01:42:47;21.60;;;8.70;;
44102;SDS011;29769;42.178;24.742;2023-02-28T01:45:32;16.98;;;7.15;;
44102;SDS011;29769;42.178;24.742;2023-02-28T01:48:23;18.88;;;7.22;;
44102;SDS011;29769;42.178;24.742;2023-02-28T01:51:15;17.73;;;7.10;;
44102;SDS011;29769;42.178;24.742;2023-02-28T01:54:06;17.98;;;6.53;;
44102;SDS011;29769;42.178;24.742;2023-02-28T01:56:59;17.15;;;6.95;;
44102;SDS011;29769;42.178;24.742;2023-02-28T01:59:57;19.35;;;7.72;;
44102;SDS011;29769;42.178;24.742;2023-02-28T02:02:45;21.73;;;8.23;;
44102;SDS011;29769;42.178;24.742;2023-02-28T02:05:33;15.35;;;7.28;;
44102;SDS011;29769;42.178;24.742;2023-02-28T02:08:25;16.08;;;7.78;;
44102;SDS011;29769;42.178;24.742;2023-02-28T02:11:12;17.30;;;7.20;;
44102;SDS011;29769;42.178;24.742;2023-02-28T02:17:29;14.32;;;7.22;;
44102;SDS011;29769;42.178;24.742;2023-02-28T02:33:09;22.92;;;9.77;;
44102;SDS011;29769;42.178;24.742;2023-02-28T02:36:24;24.00;;;10.30;;
44102;SDS011;29769;42.178;24.742;2023-02-28T02:39:17;19.30;;;9.73;;
44102;SDS011;29769;42.178;24.742;2023-02-28T02:42:11;24.17;;;10.00;;
44102;SDS011;29769;42.178;24.742;2023-02-28T02:45:01;28.00;;;11.40;;
44102;SDS011;29769;42.178;24.742;2023-02-28T02:47:51;19.48;;;10.82;;
44102;SDS011;29769;42.178;24.742;2023-02-28T02:50:37;21.75;;;11.00;;
44102;SDS011;29769;42.178;24.742;2023-02-28T02:53:25;22.20;;;10.73;;
44102;SDS011;29769;42.178;24.742;2023-02-28T02:56:18;23.80;;;10.27;;
44102;SDS011;29769;42.178;24.742;2023-02-28T02:59:07;22.38;;;10.32;;
44102;SDS011;29769;42.178;24.742;2023-02-28T03:01:56;24.30;;;10.82;;
44102;SDS011;29769;42.178;24.742;2023-02-28T03:04:53;20.73;;;11.10;;
44102;SDS011;29769;42.178;24.742;2023-02-28T03:07:47;20.38;;;8.98;;
44102;SDS011;29769;42.178;24.742;2023-02-28T03:26:13;23.75;;;11.68;;
44102;SDS011;29769;42.178;24.742;2023-02-28T03:34:56;25.58;;;12.43;;
44102;SDS011;29769;42.178;24.742;2023-02-28T03:37:49;20.73;;;12.55;;
44102;SDS011;29769;42.178;24.742;2023-02-28T03:40:41;28.45;;;12.20;;
44102;SDS011;29769;42.178;24.742;2023-02-28T03:43:34;21.58;;;11.93;;
44102;SDS011;29769;42.178;24.742;2023-02-28T03:46:23;21.60;;;12.93;;
44102;SDS011;29769;42.178;24.742;2023-02-28T03:49:19;25.63;;;13.65;;
44102;SDS011;29769;42.178;24.742;2023-02-28T03:52:09;22.70;;;13.88;;
44102;SDS011;29769;42.178;24.742;2023-02-28T03:54:56;21.20;;;11.63;;
44102;SDS011;29769;42.178;24.742;2023-02-28T04:00:50;19.33;;;11.20;;
44102;SDS011;29769;42.178;24.742;2023-02-28T04:03:42;23.08;;;8.52;;
44102;SDS011;29769;42.178;24.742;2023-02-28T04:06:27;20.13;;;9.38;;
44102;SDS011;29769;42.178;24.742;2023-02-28T04:09:15;23.23;;;10.43;;
44102;SDS011;29769;42.178;24.742;2023-02-28T04:12:00;21.73;;;10.98;;
44102;SDS011;29769;42.178;24.742;2023-02-28T04:14:45;26.08;;;12.02;;
44102;SDS011;29769;42.178;24.742;2023-02-28T04:17:30;23.90;;;10.90;;
44102;SDS011;29769;42.178;24.742;2023-02-28T04:20:15;25.60;;;11.02;;
44102;SDS011;29769;42.178;24.742;2023-02-28T04:22:59;14.48;;;9.52;;
44102;SDS011;29769;42.178;24.742;2023-02-28T04:25:44;12.20;;;7.35;;
44102;SDS011;29769;42.178;24.742;2023-02-28T04:28:29;18.75;;;10.35;;
44102;SDS011;29769;42.178;24.742;2023-02-28T04:31:14;19.50;;;9.43;;
44102;SDS011;29769;42.178;24.742;2023-02-28T04:33:59;13.85;;;8.07;;
44102;SDS011;29769;42.178;24.742;2023-02-28T04:36:44;21.13;;;8.52;;
44102;SDS011;29769;42.178;24.742;2023-02-28T04:39:34;18.85;;;9.60;;
44102;SDS011;29769;42.178;24.742;2023-02-28T04:42:20;19.25;;;9.27;;
44102;SDS011;29769;42.178;24.742;2023-02-28T04:45:04;18.77;;;10.05;;
44102;SDS011;29769;42.178;24.742;2023-02-28T04:47:50;12.15;;;7.05;;
44102;SDS011;29769;42.178;24.742;2023-02-28T04:50:35;17.33;;;10.98;;
44102;SDS011;29769;42.178;24.742;2023-02-28T04:53:20;14.77;;;8.52;;
44102;SDS011;29769;42.178;24.742;2023-02-28T04:56:06;19.95;;;10.25;;
44102;SDS011;29769;42.178;24.742;2023-02-28T04:58:51;18.00;;;11.45;;
44102;SDS011;29769;42.178;24.742;2023-02-28T05:01:37;20.60;;;12.05;;
44102;SDS011;29769;42.178;24.742;2023-02-28T05:04:22;21.40;;;10.10;;
44102;SDS011;29769;42.178;24.742;2023-02-28T05:07:07;16.83;;;8.63;;
44102;SDS011;29769;42.178;24.742;2023-02-28T05:09:52;18.48;;;9.25;;
44102;SDS011;29769;42.178;24.742;2023-02-28T05:12:37;15.50;;;8.95;;
44102;SDS011;29769;42.178;24.742;2023-02-28T05:15:23;12.32;;;8.18;;
44102;SDS011;29769;42.178;24.742;2023-02-28T05:18:08;14.70;;;8.40;;
44102;SDS011;29769;42.178;24.742;2023-02-28T05:20:53;13.63;;;8.20;;
44102;SDS011;29769;42.178;24.742;2023-02-28T05:26:23;18.88;;;7.47;;
44102;SDS011;29769;42.178;24.742;2023-02-28T05:29:08;21.80;;;11.73;;
44102;SDS011;29769;42.178;24.742;2023-02-28T05:31:54;19.70;;;12.25;;
44102;SDS011;29769;42.178;24.742;2023-02-28T05:34:39;17.88;;;10.60;;
44102;SDS011;29769;42.178;24.742;2023-02-28T05:37:24;21.08;;;11.15;;
44102;SDS011;29769;42.178;24.742;2023-02-28T05:40:09;15.18;;;8.30;;
44102;SDS011;29769;42.178;24.742;2023-02-28T05:42:54;21.50;;;13.15;;
44102;SDS011;29769;42.178;24.742;2023-02-28T05:45:39;19.40;;;8.10;;
44102;SDS011;29769;42.178;24.742;2023-02-28T05:48:24;17.25;;;10.95;;
44102;SDS011;29769;42.178;24.742;2023-02-28T05:51:10;26.48;;;11.77;;
44102;SDS011;29769;42.178;24.742;2023-02-28T05:53:57;11.07;;;6.70;;
44102;SDS011;29769;42.178;24.742;2023-02-28T05:56:43;16.85;;;9.52;;
44102;SDS011;29769;42.178;24.742;2023-02-28T05:59:29;24.55;;;12.13;;
44102;SDS011;29769;42.178;24.742;2023-02-28T06:02:16;17.48;;;9.95;;
44102;SDS011;29769;42.178;24.742;2023-02-28T06:05:02;13.60;;;9.63;;
44102;SDS011;29769;42.178;24.742;2023-02-28T06:07:47;21.77;;;11.05;;
44102;SDS011;29769;42.178;24.742;2023-02-28T06:10:31;19.45;;;9.63;;
44102;SDS011;29769;42.178;24.742;2023-02-28T06:13:16;36.10;;;14.65;;
44102;SDS011;29769;42.178;24.742;2023-02-28T06:16:01;30.67;;;13.63;;
44102;SDS011;29769;42.178;24.742;2023-02-28T06:18:46;24.23;;;11.07;;
44102;SDS011;29769;42.178;24.742;2023-02-28T06:21:31;13.20;;;7.68;;
44102;SDS011;29769;42.178;24.742;2023-02-28T06:24:15;20.20;;;9.43;;
44102;SDS011;29769;42.178;24.742;2023-02-28T06:29:49;28.75;;;9.80;;
44102;SDS011;29769;42.178;24.742;2023-02-28T06:32:38;19.08;;;7.38;;
44102;SDS011;29769;42.178;24.742;2023-02-28T06:35:24;17.02;;;8.57;;
44102;SDS011;29769;42.178;24.742;2023-02-28T06:38:09;10.55;;;6.60;;
44102;SDS011;29769;42.178;24.742;2023-02-28T06:40:55;14.25;;;7.05;;
44102;SDS011;29769;42.178;24.742;2023-02-28T06:43:41;22.63;;;11.80;;
44102;SDS011;29769;42.178;24.742;2023-02-28T06:49:11;13.13;;;7.70;;
44102;SDS011;29769;42.178;24.742;2023-02-28T06:51:56;16.33;;;8.68;;
44102;SDS011;29769;42.178;24.742;2023-02-28T06:54:41;16.15;;;9.10;;
44102;SDS011;29769;42.178;24.742;2023-02-28T06:57:29;17.65;;;9.95;;
44102;SDS011;29769;42.178;24.742;2023-02-28T07:00:17;19.85;;;9.88;;
44102;SDS011;29769;42.178;24.742;2023-02-28T07:03:02;25.67;;;11.45;;
44102;SDS011;29769;42.178;24.742;2023-02-28T07:05:47;24.85;;;12.18;;
44102;SDS011;29769;42.178;24.742;2023-02-28T07:08:32;25.02;;;13.50;;
44102;SDS011;29769;42.178;24.742;2023-02-28T07:11:17;16.60;;;10.15;;
44102;SDS011;29769;42.178;24.742;2023-02-28T07:14:03;22.40;;;11.13;;
44102;SDS011;29769;42.178;24.742;2023-02-28T07:19:34;22.88;;;10.65;;
44102;SDS011;29769;42.178;24.742;2023-02-28T07:22:19;14.48;;;9.00;;
44102;SDS011;29769;42.178;24.742;2023-02-28T07:25:04;16.65;;;9.02;;
44102;SDS011;29769;42.178;24.742;2023-02-28T07:27:50;19.65;;;10.23;;
44102;SDS011;29769;42.178;24.742;2023-02-28T07:30:37;19.92;;;9.38;;
44102;SDS011;29769;42.178;24.742;2023-02-28T07:36:09;23.88;;;11.43;;
44102;SDS011;29769;42.178;24.742;2023-02-28T07:38:59;18.50;;;10.80;;
44102;SDS011;29769;42.178;24.742;2023-02-28T07:41:44;21.20;;;11.75;;
44102;SDS011;29769;42.178;24.742;2023-02-28T07:44:29;20.02;;;10.18;;
44102;SDS011;29769;42.178;24.742;2023-02-28T07:47:13;17.80;;;9.63;;
44102;SDS011;29769;42.178;24.742;2023-02-28T07:49:58;21.52;;;11.48;;
44102;SDS011;29769;42.178;24.742;2023-02-28T07:52:44;32.17;;;15.32;;
44102;SDS011;29769;42.178;24.742;2023-02-28T07:55:28;17.60;;;8.45;;
44102;SDS011;29769;42.178;24.742;2023-02-28T08:01:04;28.67;;;13.25;;
44102;SDS011;29769;42.178;24.742;2023-02-28T08:06:39;31.13;;;14.90;;
44102;SDS011;29769;42.178;24.742;2023-02-28T08:09:24;30.48;;;11.85;;
44102;SDS011;29769;42.178;24.742;2023-02-28T08:12:10;23.20;;;11.32;;
44102;SDS011;29769;42.178;24.742;2023-02-28T08:14:55;14.48;;;8.55;;
44102;SDS011;29769;42.178;24.742;2023-02-28T08:17:40;23.05;;;11.13;;
44102;SDS011;29769;42.178;24.742;2023-02-28T08:20:25;19.00;;;11.48;;
44102;SDS011;29769;42.178;24.742;2023-02-28T08:23:11;17.35;;;8.85;;
44102;SDS011;29769;42.178;24.742;2023-02-28T08:25:56;19.65;;;12.13;;
44102;SDS011;29769;42.178;24.742;2023-02-28T08:28:40;23.50;;;12.98;;
44102;SDS011;29769;42.178;24.742;2023-02-28T08:31:25;29.85;;;14.23;;
44102;SDS011;29769;42.178;24.742;2023-02-28T08:34:11;25.23;;;14.65;;
44102;SDS011;29769;42.178;24.742;2023-02-28T08:36:57;31.33;;;15.35;;
44102;SDS011;29769;42.178;24.742;2023-02-28T08:39:42;26.70;;;14.95;;
44102;SDS011;29769;42.178;24.742;2023-02-28T08:45:12;27.42;;;14.55;;
44102;SDS011;29769;42.178;24.742;2023-02-28T08:47:58;21.38;;;12.02;;
44102;SDS011;29769;42.178;24.742;2023-02-28T08:50:43;23.08;;;14.38;;
44102;SDS011;29769;42.178;24.742;2023-02-28T08:53:28;32.83;;;17.45;;
44102;SDS011;29769;42.178;24.742;2023-02-28T08:58:58;26.57;;;14.03;;
44102;SDS011;29769;42.178;24.742;2023-02-28T09:01:43;25.60;;;15.57;;
44102;SDS011;29769;42.178;24.742;2023-02-28T09:04:28;26.08;;;14.57;;
44102;SDS011;29769;42.178;24.742;2023-02-28T09:07:15;26.88;;;15.48;;
44102;SDS011;29769;42.178;24.742;2023-02-28T09:09:59;22.35;;;12.95;;
44102;SDS011;29769;42.178;24.742;2023-02-28T09:12:44;17.60;;;11.30;;
44102;SDS011;29769;42.178;24.742;2023-02-28T09:15:31;27.50;;;14.73;;
44102;SDS011;29769;42.178;24.742;2023-02-28T09:18:16;21.83;;;13.88;;
44102;SDS011;29769;42.178;24.742;2023-02-28T09:21:02;36.65;;;18.45;;
44102;SDS011;29769;42.178;24.742;2023-02-28T09:23:49;35.42;;;15.65;;
44102;SDS011;29769;42.178;24.742;2023-02-28T09:26:35;26.80;;;15.32;;
44102;SDS011;29769;42.178;24.742;2023-02-28T09:29:19;21.10;;;13.27;;
44102;SDS011;29769;42.178;24.742;2023-02-28T09:32:04;28.40;;;17.15;;
44102;SDS011;29769;42.178;24.742;2023-02-28T09:34:49;31.70;;;16.42;;
44102;SDS011;29769;42.178;24.742;2023-02-28T09:40:20;39.33;;;19.27;;
44102;SDS011;29769;42.178;24.742;2023-02-28T09:43:09;27.25;;;14.68;;
44102;SDS011;29769;42.178;24.742;2023-02-28T09:46:00;35.42;;;19.33;;
44102;SDS011;29769;42.178;24.742;2023-02-28T09:48:53;34.42;;;17.55;;
44102;SDS011;29769;42.178;24.742;2023-02-28T09:51:43;27.55;;;16.13;;
44102;SDS011;29769;42.178;24.742;2023-02-28T09:54:45;36.97;;;17.17;;
44102;SDS011;29769;42.178;24.742;2023-02-28T09:57:35;32.95;;;15.40;;
44102;SDS011;29769;42.178;24.742;2023-02-28T10:00:33;32.33;;;14.57;;
44102;SDS011;29769;42.178;24.742;2023-02-28T10:06:21;32.72;;;18.05;;
44102;SDS011;29769;42.178;24.742;2023-02-28T10:09:17;36.50;;;18.52;;
44102;SDS011;29769;42.178;24.742;2023-02-28T10:12:08;32.25;;;17.45;;
44102;SDS011;29769;42.178;24.742;2023-02-28T10:14:55;28.27;;;15.90;;
44102;SDS011;29769;42.178;24.742;2023-02-28T10:17:44;29.92;;;18.70;;
44102;SDS011;29769;42.178;24.742;2023-02-28T10:20:34;31.20;;;17.33;;
44102;SDS011;29769;42.178;24.742;2023-02-28T10:23:24;38.83;;;21.65;;
44102;SDS011;29769;42.178;24.742;2023-02-28T10:26:12;40.20;;;21.20;;
44102;SDS011;29769;42.178;24.742;2023-02-28T10:29:03;39.45;;;21.58;;
44102;SDS011;29769;42.178;24.742;2023-02-28T10:31:48;35.92;;;19.73;;
44102;SDS011;29769;42.178;24.742;2023-02-28T10:34:32;26.17;;;15.05;;
44102;SDS011;29769;42.178;24.742;2023-02-28T10:40:11;59.25;;;30.42;;
44102;SDS011;29769;42.178;24.742;2023-02-28T10:46:01;33.60;;;19.67;;
44102;SDS011;29769;42.178;24.742;2023-02-28T10:48:50;33.30;;;16.55;;
44102;SDS011;29769;42.178;24.742;2023-02-28T10:51:45;40.88;;;23.83;;
44102;SDS011;29769;42.178;24.742;2023-02-28T10:54:34;43.55;;;21.20;;
44102;SDS011;29769;42.178;24.742;2023-02-28T10:57:22;31.17;;;17.17;;
44102;SDS011;29769;42.178;24.742;2023-02-28T11:00:20;41.08;;;24.40;;
44102;SDS011;29769;42.178;24.742;2023-02-28T11:03:22;48.67;;;23.27;;
44102;SDS011;29769;42.178;24.742;2023-02-28T11:09:06;35.78;;;18.00;;
44102;SDS011;29769;42.178;24.742;2023-02-28T11:12:07;44.15;;;22.58;;
44102;SDS011;29769;42.178;24.742;2023-02-28T11:15:04;44.00;;;23.73;;
44102;SDS011;29769;42.178;24.742;2023-02-28T11:20:57;49.05;;;28.40;;
44102;SDS011;29769;42.178;24.742;2023-02-28T11:23:45;45.42;;;22.60;;
44102;SDS011;29769;42.178;24.742;2023-02-28T11:26:41;42.88;;;25.40;;
44102;SDS011;29769;42.178;24.742;2023-02-28T11:29:30;53.58;;;25.02;;
44102;SDS011;29769;42.178;24.742;2023-02-28T11:32:19;38.17;;;19.27;;
44102;SDS011;29769;42.178;24.742;2023-02-28T11:37:54;52.55;;;25.30;;
44102;SDS011;29769;42.178;24.742;2023-02-28T11:40:50;54.95;;;23.65;;
44102;SDS011;29769;42.178;24.742;2023-02-28T11:46:41;53.80;;;28.05;;
44102;SDS011;29769;42.178;24.742;2023-02-28T11:49:43;44.50;;;22.95;;
44102;SDS011;29769;42.178;24.742;2023-02-28T11:55:43;54.70;;;27.63;;
44102;SDS011;29769;42.178;24.742;2023-02-28T12:13:34;57.15;;;26.27;;
44102;SDS011;29769;42.178;24.742;2023-02-28T12:19:48;48.28;;;27.42;;
44102;SDS011;29769;42.178;24.742;2023-02-28T12:22:42;48.90;;;26.80;;
44102;SDS011;29769;42.178;24.742;2023-02-28T12:25:48;45.15;;;25.92;;
44102;SDS011;29769;42.178;24.742;2023-02-28T12:28:41;40.60;;;23.13;;
44102;SDS011;29769;42.178;24.742;2023-02-28T12:31:31;50.50;;;26.90;;
44102;SDS011;29769;42.178;24.742;2023-02-28T12:34:41;49.88;;;28.55;;
44102;SDS011;29769;42.178;24.742;2023-02-28T12:40:52;50.83;;;24.90;;
44102;SDS011;29769;42.178;24.742;2023-02-28T12:44:00;47.67;;;26.55;;
44102;SDS011;29769;42.178;24.742;2023-02-28T12:46:51;53.55;;;27.13;;
44102;SDS011;29769;42.178;24.742;2023-02-28T12:49:42;59.50;;;27.98;;
44102;SDS011;29769;42.178;24.742;2023-02-28T12:52:48;52.60;;;27.23;;
44102;SDS011;29769;42.178;24.742;2023-02-28T12:58:41;41.78;;;22.45;;
44102;SDS011;29769;42.178;24.742;2023-02-28T13:07:36;54.08;;;24.25;;
44102;SDS011;29769;42.178;24.742;2023-02-28T13:10:41;66.85;;;30.38;;
44102;SDS011;29769;42.178;24.742;2023-02-28T13:13:30;62.58;;;38.38;;
44102;SDS011;29769;42.178;24.742;2023-02-28T13:16:16;72.70;;;37.90;;
44102;SDS011;29769;42.178;24.742;2023-02-28T13:19:08;73.10;;;38.40;;
44102;SDS011;29769;42.178;24.742;2023-02-28T13:21:55;70.72;;;35.95;;
44102;SDS011;29769;42.178;24.742;2023-02-28T13:24:46;55.80;;;26.55;;
44102;SDS011;29769;42.178;24.742;2023-02-28T13:27:34;50.50;;;26.58;;
44102;SDS011;29769;42.178;24.742;2023-02-28T13:36:33;52.28;;;26.13;;
44102;SDS011;29769;42.178;24.742;2023-02-28T13:57:35;48.35;;;26.75;;
44102;SDS011;29769;42.178;24.742;2023-02-28T14:00:55;47.97;;;26.50;;
44102;SDS011;29769;42.178;24.742;2023-02-28T14:06:59;47.65;;;24.05;;
44102;SDS011;29769;42.178;24.742;2023-02-28T14:09:46;45.80;;;27.13;;
44102;SDS011;29769;42.178;24.742;2023-02-28T14:18:47;34.72;;;19.63;;
44102;SDS011;29769;42.178;24.742;2023-02-28T14:21:36;39.83;;;23.50;;
44102;SDS011;29769;42.178;24.742;2023-02-28T14:27:29;41.33;;;23.83;;
44102;SDS011;29769;42.178;24.742;2023-02-28T14:30:26;41.67;;;22.58;;
44102;SDS011;29769;42.178;24.742;2023-02-28T14:36:49;32.40;;;19.00;;
44102;SDS011;29769;42.178;24.742;2023-02-28T14:39:36;36.00;;;19.77;;
44102;SDS011;29769;42.178;24.742;2023-02-28T14:45:21;32.20;;;17.92;;
44102;SDS011;29769;42.178;24.742;2023-02-28T14:48:08;35.42;;;22.10;;
44102;SDS011;29769;42.178;24.742;2023-02-28T14:50:57;34.38;;;19.73;;
44102;SDS011;29769;42.178;24.742;2023-02-28T14:53:44;35.67;;;20.73;;
44102;SDS011;29769;42.178;24.742;2023-02-28T14:56:38;36.20;;;19.08;;
44102;SDS011;29769;42.178;24.742;2023-02-28T14:59:28;38.03;;;23.38;;
44102;SDS011;29769;42.178;24.742;2023-02-28T15:02:18;35.00;;;22.10;;
44102;SDS011;29769;42.178;24.742;2023-02-28T15:05:50;40.00;;;21.80;;
44102;SDS011;29769;42.178;24.742;2023-02-28T15:08:17;34.70;;;18.67;;
44102;SDS011;29769;42.178;24.742;2023-02-28T15:11:03;36.72;;;21.25;;
44102;SDS011;29769;42.178;24.742;2023-02-28T15:13:52;38.97;;;22.60;;
44102;SDS011;29769;42.178;24.742;2023-02-28T15:16:40;42.00;;;23.05;;
44102;SDS011;29769;42.178;24.742;2023-02-28T15:19:32;33.22;;;20.63;;
44102;SDS011;29769;42.178;24.742;2023-02-28T15:22:24;41.92;;;24.45;;
44102;SDS011;29769;42.178;24.742;2023-02-28T15:25:20;40.58;;;22.77;;
44102;SDS011;29769;42.178;24.742;2023-02-28T15:28:09;40.67;;;22.83;;
44102;SDS011;29769;42.178;24.742;2023-02-28T15:30:59;32.35;;;19.27;;
44102;SDS011;29769;42.178;24.742;2023-02-28T15:33:56;34.20;;;18.55;;
44102;SDS011;29769;42.178;24.742;2023-02-28T15:36:42;27.85;;;16.33;;
44102;SDS011;29769;42.178;24.742;2023-02-28T15:39:28;25.00;;;15.65;;
44102;SDS011;29769;42.178;24.742;2023-02-28T15:42:18;32.08;;;18.23;;
44102;SDS011;29769;42.178;24.742;2023-02-28T15:45:04;33.60;;;19.20;;
44102;SDS011;29769;42.178;24.742;2023-02-28T15:47:49;30.35;;;18.13;;
44102;SDS011;29769;42.178;24.742;2023-02-28T15:50:35;28.00;;;14.55;;
44102;SDS011;29769;42.178;24.742;2023-02-28T15:56:17;26.38;;;15.30;;
44102;SDS011;29769;42.178;24.742;2023-02-28T15:59:07;35.10;;;16.02;;
44102;SDS011;29769;42.178;24.742;2023-02-28T16:07:44;34.88;;;18.83;;
44102;SDS011;29769;42.178;24.742;2023-02-28T16:10:29;37.83;;;20.20;;
44102;SDS011;29769;42.178;24.742;2023-02-28T16:13:14;32.90;;;16.95;;
44102;SDS011;29769;42.178;24.742;2023-02-28T16:16:01;37.10;;;20.00;;
44102;SDS011;29769;42.178;24.742;2023-02-28T16:18:46;39.33;;;19.30;;
44102;SDS011;29769;42.178;24.742;2023-02-28T16:21:31;38.83;;;21.92;;
44102;SDS011;29769;42.178;24.742;2023-02-28T16:24:15;48.47;;;17.65;;
44102;SDS011;29769;42.178;24.742;2023-02-28T16:29:45;37.45;;;18.30;;
44102;SDS011;29769;42.178;24.742;2023-02-28T16:32:31;40.70;;;17.98;;
44102;SDS011;29769;42.178;24.742;2023-02-28T16:35:19;44.15;;;21.10;;
44102;SDS011;29769;42.178;24.742;2023-02-28T16:38:05;42.28;;;20.42;;
44102;SDS011;29769;42.178;24.742;2023-02-28T16:40:50;37.58;;;17.77;;
44102;SDS011;29769;42.178;24.742;2023-02-28T16:43:35;35.63;;;16.40;;
44102;SDS011;29769;42.178;24.742;2023-02-28T16:46:20;40.90;;;18.83;;
44102;SDS011;29769;42.178;24.742;2023-02-28T16:49:08;38.13;;;19.33;;
44102;SDS011;29769;42.178;24.742;2023-02-28T16:51:55;46.50;;;22.65;;
44102;SDS011;29769;42.178;24.742;2023-02-28T16:57:26;38.15;;;17.88;;
44102;SDS011;29769;42.178;24.742;2023-02-28T17:00:11;38.28;;;19.00;;
44102;SDS011;29769;42.178;24.742;2023-02-28T17:02:58;37.10;;;18.92;;
44102;SDS011;29769;42.178;24.742;2023-02-28T17:05:47;32.03;;;16.52;;
44102;SDS011;29769;42.178;24.742;2023-02-28T17:08:31;35.53;;;18.27;;
44102;SDS011;29769;42.178;24.742;2023-02-28T17:14:02;32.33;;;16.00;;
44102;SDS011;29769;42.178;24.742;2023-02-28T17:16:47;31.55;;;15.45;;
44102;SDS011;29769;42.178;24.742;2023-02-28T17:19:32;37.75;;;20.92;;
44102;SDS011;29769;42.178;24.742;2023-02-28T17:22:17;31.02;;;14.70;;
44102;SDS011;29769;42.178;24.742;2023-02-28T17:25:02;20.27;;;12.35;;
44102;SDS011;29769;42.178;24.742;2023-02-28T17:27:47;28.65;;;16.42;;
44102;SDS011;29769;42.178;24.742;2023-02-28T17:33:18;30.95;;;17.33;;
44102;SDS011;29769;42.178;24.742;2023-02-28T17:36:03;29.88;;;14.55;;
44102;SDS011;29769;42.178;24.742;2023-02-28T17:38:48;25.85;;;14.52;;
44102;SDS011;29769;42.178;24.742;2023-02-28T17:41:33;31.15;;;17.88;;
44102;SDS011;29769;42.178;24.742;2023-02-28T17:44:18;34.78;;;18.75;;
44102;SDS011;29769;42.178;24.742;2023-02-28T17:47:03;29.23;;;16.42;;
44102;SDS011;29769;42.178;24.742;2023-02-28T17:49:48;32.08;;;17.95;;
44102;SDS011;29769;42.178;24.742;2023-02-28T17:52:33;24.65;;;14.48;;
44102;SDS011;29769;42.178;24.742;2023-02-28T17:55:20;20.30;;;11.70;;
44102;SDS011;29769;42.178;24.742;2023-02-28T17:58:05;19.55;;;12.68;;
44102;SDS011;29769;42.178;24.742;2023-02-28T18:00:53;12.57;;;8.05;;
44102;SDS011;29769;42.178;24.742;2023-02-28T18:03:39;12.70;;;8.32;;
44102;SDS011;29769;42.178;24.742;2023-02-28T18:09:15;13.98;;;8.90;;
44102;SDS011;29769;42.178;24.742;2023-02-28T18:12:02;12.93;;;8.88;;
44102;SDS011;29769;42.178;24.742;2023-02-28T18:14:47;15.88;;;10.02;;
44102;SDS011;29769;42.178;24.742;2023-02-28T18:17:32;15.18;;;10.65;;
44102;SDS011;29769;42.178;24.742;2023-02-28T18:20:17;16.90;;;8.82;;
44102;SDS011;29769;42.178;24.742;2023-02-28T18:23:02;12.00;;;8.18;;
44102;SDS011;29769;42.178;24.742;2023-02-28T18:25:47;16.33;;;10.60;;
44102;SDS011;29769;42.178;24.742;2023-02-28T18:28:32;19.38;;;10.57;;
44102;SDS011;29769;42.178;24.742;2023-02-28T18:31:18;12.25;;;8.60;;
44102;SDS011;29769;42.178;24.742;2023-02-28T18:34:04;15.57;;;8.23;;
44102;SDS011;29769;42.178;24.742;2023-02-28T18:36:49;11.55;;;8.02;;
44102;SDS011;29769;42.178;24.742;2023-02-28T18:39:35;14.40;;;9.65;;
44102;SDS011;29769;42.178;24.742;2023-02-28T18:42:20;11.07;;;7.55;;
44102;SDS011;29769;42.178;24.742;2023-02-28T18:45:05;9.60;;;5.50;;
44102;SDS011;29769;42.178;24.742;2023-02-28T18:47:50;10.80;;;6.63;;
44102;SDS011;29769;42.178;24.742;2023-02-28T18:53:23;11.63;;;8.40;;
44102;SDS011;29769;42.178;24.742;2023-02-28T18:56:09;10.30;;;7.65;;
44102;SDS011;29769;42.178;24.742;2023-02-28T18:58:56;11.57;;;7.97;;
44102;SDS011;29769;42.178;24.742;2023-02-28T19:01:41;13.30;;;8.68;;
44102;SDS011;29769;42.178;24.742;2023-02-28T19:07:10;10.50;;;8.30;;
44102;SDS011;29769;42.178;24.742;2023-02-28T19:09:55;10.18;;;7.65;;
44102;SDS011;29769;42.178;24.742;2023-02-28T19:12:40;9.88;;;7.38;;
44102;SDS011;29769;42.178;24.742;2023-02-28T19:15:29;11.55;;;6.70;;
44102;SDS011;29769;42.178;24.742;2023-02-28T19:18:13;9.32;;;5.35;;
44102;SDS011;29769;42.178;24.742;2023-02-28T19:20:58;9.07;;;5.57;;
44102;SDS011;29769;42.178;24.742;2023-02-28T19:23:44;7.97;;;5.78;;
44102;SDS011;29769;42.178;24.742;2023-02-28T19:26:29;7.00;;;5.07;;
44102;SDS011;29769;42.178;24.742;2023-02-28T19:29:13;9.30;;;6.18;;
44102;SDS011;29769;42.178;24.742;2023-02-28T19:31:58;6.82;;;5.30;;